This is the latest recevied weather packets stored in our database for station/object N7JP. If no packets are shown the sender has not sent any weather packets the latest 10 day(s).
| Time | Temp. | Humidity | Pressure | Rain* | Wind** | Luminosity | Snow |
|---|---|---|---|---|---|---|---|
| 1777520620 | 12.78° C | 73% | 1016.8 hPa | 0 mm | - | - | - |
| 1777519720 | 13.33° C | 69% | 1016.8 hPa | 0 mm | - | - | - |
| 1777518822 | 13.89° C | 68% | 1016.7 hPa | 0 mm | - | - | - |
| 1777517920 | 14.44° C | 67% | 1016.6 hPa | 0 mm | - | - | - |
| 1777517019 | 15° C | 66% | 1016.7 hPa | 0 mm | - | - | - |
| 1777516119 | 15° C | 66% | 1016.7 hPa | 0 mm | - | - | - |
| 1777515202 | 15.56° C | 65% | 1016.8 hPa | 0 mm | - | - | - |
| 1777514305 | 15.56° C | 66% | 1016.9 hPa | 0 mm | - | - | - |
| 1777513391 | 15.56° C | 68% | 1016.9 hPa | 0 mm | - | - | - |
| 1777512491 | 16.11° C | 67% | 1017 hPa | 0 mm | - | - | - |
| 1777511585 | 16.11° C | 67% | 1017.1 hPa | 0 mm | - | - | - |
| 1777510684 | 16.11° C | 67% | 1017.2 hPa | 0 mm | - | - | - |
| 1777509784 | 16.11° C | 67% | 1017.2 hPa | 0 mm | - | - | - |
| 1777508864 | 16.11° C | 66% | 1017.2 hPa | 0 mm | - | - | - |
| 1777507964 | 16.67° C | 68% | 1017.2 hPa | 0 mm | - | - | - |
| 1777507059 | 16.67° C | 66% | 1017.3 hPa | 0 mm | - | - | - |
| 1777506153 | 16.11° C | 67% | 1017.4 hPa | 0 mm | - | - | - |
| 1777505250 | 16.11° C | 68% | 1017.6 hPa | 0 mm | - | - | - |
| 1777504351 | 16.11° C | 69% | 1017.7 hPa | 0 mm | - | - | - |
| 1777503448 | 16.11° C | 69% | 1017.9 hPa | 0 mm | - | - | - |
| 1777502531 | 16.11° C | 69% | 1018.2 hPa | 0 mm | - | - | - |
| 1777501611 | 15.56° C | 71% | 1018.4 hPa | 0 mm | - | - | - |
| 1777500704 | 15.56° C | 71% | 1018.6 hPa | 0 mm | - | - | - |
| 1777499805 | 15.56° C | 71% | 1018.7 hPa | 0 mm | - | - | - |
| 1777498879 | 15.56° C | 70% | 1018.8 hPa | 0 mm | - | - | - |
* Rain latest hour (hover to see other rain measurements)
** Current wind speed in m/s (hover to see current wind gust speed)